Adell, Wisconsin
Current Conditions -  °F | °C
As of 11:53 AM on Friday 24 Oct 2014 (Local Time) from KSBM Reporting Station
Overcast Overcast  
Wind Chill: 12°   Ceiling: 800
Heat Index: 12°   Visibility: 10mi
Dew Point:   Wind: 6mph
Humidity: 83%   Direction: 170°S
Pressure: 30.01"   Gusts: NA
Location:  43.62°N, 87.95°W
Report Text: KSBM 241653Z AUTO 17005KT 10SM OVC008 12/09 A3001 RMK AO2 SLP165 T01170089
Loading
Personal Weather Stations






























Interactive Weather Map New forecast layout! Learn more

10-Day Weather Forecast

Advertisements
Track Severe Weather on mobile